Time;durP1;ratioP1;P1;durP2;ratioP2;P2;SDS_P1;SDS_P2;PMS_P1;PMS_P2;Temp;Humidity;BMP_temperature;BMP_pressure;BME280_temperature;BME280_humidity;BME280_pressure;Samples;Min_cycle;Max_cycle;Signal;HPM_P1;HPM_P2
2023/04/08 00:00:58;;;;;;;8.30;7.30;;;4.90;99.90;;;;;;4958371;28;20129;-73
2023/04/08 00:03:23;;;;;;;9.60;7.47;;;4.90;99.90;;;;;;4963606;28;20057;-73
2023/04/08 00:05:49;;;;;;;7.85;7.05;;;4.90;99.90;;;;;;4960432;28;20050;-73
2023/04/08 00:08:15;;;;;;;9.35;7.00;;;4.90;99.90;;;;;;4943490;28;20490;-72
2023/04/08 00:10:40;;;;;;;7.97;7.10;;;4.90;99.90;;;;;;4973814;28;20047;-73
2023/04/08 00:13:06;;;;;;;8.40;7.43;;;4.80;99.90;;;;;;4971045;28;20078;-73
2023/04/08 00:15:32;;;;;;;9.00;6.85;;;4.90;99.90;;;;;;4973591;28;20058;-73
2023/04/08 00:17:57;;;;;;;8.18;6.97;;;4.80;99.90;;;;;;4957410;28;20035;-73
2023/04/08 00:20:23;;;;;;;10.52;7.53;;;4.80;99.90;;;;;;4956478;28;20039;-72
2023/04/08 00:22:49;;;;;;;10.25;7.15;;;4.70;99.90;;;;;;4957683;28;20034;-72
2023/04/08 00:25:15;;;;;;;10.43;7.47;;;4.70;99.90;;;;;;4944866;28;20043;-73
2023/04/08 00:27:41;;;;;;;8.02;6.45;;;4.80;99.90;;;;;;4957245;28;20066;-73
2023/04/08 00:30:07;;;;;;;9.95;7.80;;;4.80;99.90;;;;;;4961793;28;20108;-73
2023/04/08 00:32:33;;;;;;;9.27;7.40;;;4.70;99.90;;;;;;4937320;28;20045;-73
2023/04/08 00:34:59;;;;;;;10.90;7.90;;;4.70;99.90;;;;;;4960114;28;20062;-73
2023/04/08 00:37:25;;;;;;;9.32;7.28;;;4.70;99.90;;;;;;4969715;28;20141;-73
2023/04/08 00:39:52;;;;;;;11.75;7.72;;;4.70;99.90;;;;;;4959242;28;20053;-72
2023/04/08 00:42:19;;;;;;;10.45;7.53;;;4.60;99.90;;;;;;4970000;28;20481;-73
2023/04/08 00:44:45;;;;;;;12.45;8.27;;;4.60;99.90;;;;;;4976486;28;20053;-73
2023/04/08 00:47:12;;;;;;;9.48;7.45;;;4.60;99.90;;;;;;4961629;28;20058;-72
2023/04/08 00:49:37;;;;;;;11.48;7.82;;;4.60;99.90;;;;;;4952170;28;20047;-72
2023/04/08 00:52:03;;;;;;;10.60;7.53;;;4.60;99.90;;;;;;4955854;28;20600;-73
2023/04/08 00:54:30;;;;;;;9.48;7.68;;;4.60;99.90;;;;;;4971412;28;20114;-73
2023/04/08 00:56:58;;;;;;;9.90;8.10;;;4.50;99.90;;;;;;4968616;28;20046;-73
2023/04/08 00:59:25;;;;;;;12.93;8.52;;;4.50;99.90;;;;;;4968170;28;20439;-72
2023/04/08 01:02:05;;;;;;;11.75;7.70;;;4.40;99.90;;;;;;4965223;28;20082;-73
2023/04/08 01:04:57;;;;;;;11.77;8.23;;;4.40;99.90;;;;;;4956708;28;20034;-71
2023/04/08 01:07:27;;;;;;;8.80;7.85;;;4.30;99.90;;;;;;4954046;28;20153;-73
2023/04/08 01:10:01;;;;;;;8.90;7.68;;;4.30;99.90;;;;;;4954070;28;20043;-73
2023/04/08 01:12:30;;;;;;;11.60;8.30;;;4.30;99.90;;;;;;4969462;28;20410;-72
2023/04/08 01:15:07;;;;;;;11.95;8.38;;;4.20;99.90;;;;;;4973027;28;20051;-72
2023/04/08 01:17:35;;;;;;;13.50;8.07;;;4.20;99.90;;;;;;4954097;28;20057;-72
2023/04/08 01:20:03;;;;;;;9.85;7.80;;;4.10;99.90;;;;;;4951282;28;20109;-72
2023/04/08 01:23:24;;;;;;;10.27;8.73;;;4.10;99.90;;;;;;4952493;28;20122;-72
2023/04/08 01:25:52;;;;;;;11.57;7.72;;;4.10;99.90;;;;;;4927053;28;20040;-73
2023/04/08 01:28:20;;;;;;;11.93;7.93;;;4.10;99.90;;;;;;4959261;28;20047;-72
2023/04/08 01:30:47;;;;;;;10.18;7.55;;;4.00;99.90;;;;;;4954686;28;20035;-73
2023/04/08 01:33:15;;;;;;;10.65;8.00;;;4.00;99.90;;;;;;4950975;28;20121;-73
2023/04/08 01:35:42;;;;;;;9.05;8.05;;;3.90;99.90;;;;;;4953655;28;20042;-72
2023/04/08 01:38:12;;;;;;;8.80;7.68;;;3.80;99.90;;;;;;4947139;28;20043;-73
2023/04/08 01:40:39;;;;;;;11.85;8.23;;;3.80;99.90;;;;;;4954228;28;20089;-72
2023/04/08 01:43:08;;;;;;;11.50;8.57;;;3.70;99.90;;;;;;4970282;28;20050;-73
2023/04/08 01:45:33;;;;;;;11.07;8.32;;;3.70;99.90;;;;;;4968613;28;20121;-73
2023/04/08 01:48:00;;;;;;;11.25;8.02;;;3.60;99.90;;;;;;4968643;28;20130;-72
2023/04/08 01:50:27;;;;;;;10.95;8.48;;;3.60;99.90;;;;;;4958963;28;20042;-73
2023/04/08 01:52:54;;;;;;;11.50;9.07;;;3.60;99.90;;;;;;4958711;28;20070;-72
2023/04/08 01:55:21;;;;;;;10.68;8.98;;;3.50;99.90;;;;;;4956981;28;20047;-72
2023/04/08 01:57:51;;;;;;;11.48;8.27;;;3.50;99.90;;;;;;4971215;28;20042;-72
2023/04/08 02:00:25;;;;;;;11.85;8.95;;;3.40;99.90;;;;;;4975380;28;20168;-72
2023/04/08 02:02:52;;;;;;;11.13;8.70;;;3.40;99.90;;;;;;4944629;28;20358;-72
2023/04/08 02:05:18;;;;;;;14.63;9.85;;;3.40;99.90;;;;;;4973206;28;20037;-72
2023/04/08 02:07:45;;;;;;;12.23;9.68;;;3.30;99.90;;;;;;4962909;28;20042;-72
2023/04/08 02:10:11;;;;;;;11.73;9.20;;;3.30;99.90;;;;;;4957960;28;20047;-72
2023/04/08 02:12:37;;;;;;;12.65;9.82;;;3.30;99.90;;;;;;4956659;28;20132;-72
2023/04/08 02:15:04;;;;;;;14.50;9.93;;;3.30;99.90;;;;;;4961326;28;20038;-73
2023/04/08 02:17:41;;;;;;;13.75;9.82;;;3.30;99.90;;;;;;4957944;28;20325;-73
2023/04/08 02:20:10;;;;;;;13.85;11.05;;;3.20;99.90;;;;;;4961869;28;20102;-73
2023/04/08 02:22:58;;;;;;;13.68;10.75;;;3.30;99.90;;;;;;4939276;28;20495;-71
2023/04/08 02:25:25;;;;;;;16.00;11.00;;;3.20;99.90;;;;;;4955356;28;20420;-72
2023/04/08 02:27:53;;;;;;;14.68;10.98;;;3.20;99.90;;;;;;4977402;28;20061;-72
2023/04/08 02:30:20;;;;;;;14.77;11.23;;;3.20;99.90;;;;;;4959066;28;20235;-71
2023/04/08 02:32:47;;;;;;;13.80;11.85;;;3.20;99.90;;;;;;4960571;28;20376;-72
2023/04/08 02:35:15;;;;;;;14.80;11.05;;;3.10;99.90;;;;;;4955094;28;20039;-72
2023/04/08 02:37:41;;;;;;;16.92;12.30;;;3.10;99.90;;;;;;4954633;28;20039;-72
2023/04/08 02:40:27;;;;;;;15.30;10.95;;;3.10;99.90;;;;;;4963461;28;20483;-72
2023/04/08 02:42:53;;;;;;;16.45;12.35;;;3.20;99.90;;;;;;4961092;28;20057;-72
2023/04/08 02:45:19;;;;;;;17.92;12.50;;;3.00;99.90;;;;;;4947555;28;20075;-72
2023/04/08 02:47:45;;;;;;;16.13;12.77;;;3.10;99.90;;;;;;4959690;28;20043;-72
2023/04/08 02:50:11;;;;;;;17.27;13.20;;;3.10;99.90;;;;;;4965344;28;20193;-72
2023/04/08 02:52:37;;;;;;;16.25;11.98;;;3.00;99.90;;;;;;4965110;28;20139;-72
2023/04/08 02:55:05;;;;;;;14.82;11.93;;;3.00;99.90;;;;;;4955764;28;20059;-71
2023/04/08 02:57:31;;;;;;;16.58;12.68;;;3.00;99.90;;;;;;4958071;28;20042;-72
2023/04/08 02:59:57;;;;;;;18.08;13.75;;;3.00;99.90;;;;;;4947494;28;20050;-72
2023/04/08 03:02:22;;;;;;;17.13;12.15;;;2.90;99.90;;;;;;4957182;28;20051;-72
2023/04/08 03:04:48;;;;;;;16.13;12.02;;;2.90;99.90;;;;;;4958386;28;20069;-72
2023/04/08 03:07:14;;;;;;;17.30;12.73;;;2.90;99.90;;;;;;4957998;28;20094;-72
2023/04/08 03:09:40;;;;;;;17.25;14.07;;;2.90;99.90;;;;;;4961145;28;20050;-72
2023/04/08 03:12:05;;;;;;;17.02;12.90;;;2.90;99.90;;;;;;4953435;28;20047;-72
2023/04/08 03:14:31;;;;;;;17.70;13.77;;;2.80;99.90;;;;;;4961711;28;20042;-72
2023/04/08 03:16:57;;;;;;;20.63;14.70;;;2.90;99.90;;;;;;4973718;28;20047;-72
2023/04/08 03:19:23;;;;;;;20.48;14.82;;;2.80;99.90;;;;;;4961664;28;20117;-72
2023/04/08 03:21:48;;;;;;;18.70;15.23;;;2.80;99.90;;;;;;4956634;28;20487;-71
2023/04/08 03:24:14;;;;;;;21.35;14.88;;;2.80;99.90;;;;;;4958923;28;20051;-72
2023/04/08 03:26:40;;;;;;;22.17;15.85;;;2.80;99.90;;;;;;4955626;28;20522;-71
2023/04/08 03:29:05;;;;;;;20.60;15.48;;;2.80;99.90;;;;;;4963091;28;20077;-72
2023/04/08 03:31:31;;;;;;;20.50;15.13;;;2.70;99.90;;;;;;4958003;28;20059;-72
2023/04/08 03:33:57;;;;;;;19.60;15.10;;;2.70;99.90;;;;;;4960445;28;20569;-72
2023/04/08 03:36:23;;;;;;;21.58;16.60;;;2.70;99.90;;;;;;4957381;28;20050;-72
2023/04/08 03:38:48;;;;;;;21.75;17.85;;;2.70;99.90;;;;;;4958555;28;20097;-72
2023/04/08 03:41:15;;;;;;;20.98;16.95;;;2.70;99.90;;;;;;4951430;28;20042;-71
2023/04/08 03:43:40;;;;;;;19.17;16.20;;;2.70;99.90;;;;;;4967977;28;20031;-72
2023/04/08 03:46:06;;;;;;;23.38;16.38;;;2.80;99.90;;;;;;4959387;28;20074;-72
2023/04/08 03:48:32;;;;;;;20.98;17.88;;;2.70;99.90;;;;;;4957636;28;20046;-72
2023/04/08 03:50:57;;;;;;;24.33;17.80;;;2.60;99.90;;;;;;4955650;28;20105;-72
2023/04/08 03:53:23;;;;;;;22.65;17.85;;;2.70;99.90;;;;;;4951751;28;20058;-72
2023/04/08 03:55:50;;;;;;;22.15;16.73;;;2.70;99.90;;;;;;4959022;28;20073;-72
2023/04/08 03:58:15;;;;;;;23.60;17.67;;;2.70;99.90;;;;;;4957252;28;20083;-71
2023/04/08 04:00:41;;;;;;;21.67;17.50;;;2.70;99.90;;;;;;4951248;28;20562;-71
2023/04/08 04:03:09;;;;;;;23.20;18.17;;;2.60;99.90;;;;;;4951518;28;20039;-71
2023/04/08 04:05:35;;;;;;;20.90;17.77;;;2.60;99.90;;;;;;4958728;28;20066;-72
2023/04/08 04:08:01;;;;;;;24.48;18.75;;;2.60;99.90;;;;;;4957610;28;20038;-72
2023/04/08 04:10:27;;;;;;;24.23;18.48;;;2.60;99.90;;;;;;4958774;28;20043;-72
2023/04/08 04:12:52;;;;;;;25.88;18.50;;;2.60;99.90;;;;;;4957614;28;20051;-72
2023/04/08 04:15:18;;;;;;;23.08;17.88;;;2.60;99.90;;;;;;4957809;28;20429;-72
2023/04/08 04:17:49;;;;;;;24.40;19.27;;;2.60;99.90;;;;;;4956513;28;20113;-72
2023/04/08 04:20:16;;;;;;;24.25;19.50;;;2.60;99.90;;;;;;4939220;28;20046;-72
2023/04/08 04:22:42;;;;;;;29.02;20.08;;;2.60;99.90;;;;;;4953126;28;20038;-72
2023/04/08 04:25:08;;;;;;;24.45;20.83;;;2.60;99.90;;;;;;4954287;28;20101;-72
2023/04/08 04:27:35;;;;;;;25.60;20.75;;;2.60;99.90;;;;;;4973760;28;20108;-72
2023/04/08 04:30:02;;;;;;;25.98;19.88;;;2.60;99.90;;;;;;4956719;28;20553;-72
2023/04/08 04:32:27;;;;;;;27.30;19.90;;;2.60;99.90;;;;;;4958437;28;20103;-71
2023/04/08 04:34:53;;;;;;;25.00;20.17;;;2.60;99.90;;;;;;4958676;28;20195;-71
2023/04/08 04:37:19;;;;;;;27.45;20.60;;;2.60;99.90;;;;;;4951972;28;20042;-71
2023/04/08 04:39:45;;;;;;;27.48;19.98;;;2.60;99.90;;;;;;4958742;28;20034;-71
2023/04/08 04:42:10;;;;;;;25.88;19.83;;;2.50;99.90;;;;;;4974654;28;20084;-72
2023/04/08 04:44:36;;;;;;;26.55;21.35;;;2.50;99.90;;;;;;4955171;28;20141;-72
2023/04/08 04:47:02;;;;;;;28.00;20.50;;;2.50;99.90;;;;;;4955684;28;20110;-72
2023/04/08 04:49:28;;;;;;;29.73;22.10;;;2.50;99.90;;;;;;4966067;28;20089;-72
2023/04/08 04:51:53;;;;;;;28.35;21.83;;;2.50;99.90;;;;;;4957793;28;20099;-72
2023/04/08 04:54:19;;;;;;;29.40;21.65;;;2.60;99.90;;;;;;4952942;28;20145;-72
2023/04/08 04:56:45;;;;;;;29.55;21.15;;;2.50;99.90;;;;;;4956805;28;20134;-72
2023/04/08 04:59:11;;;;;;;25.13;20.30;;;2.50;99.90;;;;;;4951046;28;20190;-71
2023/04/08 05:01:39;;;;;;;26.75;20.92;;;2.50;99.90;;;;;;4956557;28;20038;-72
2023/04/08 05:04:06;;;;;;;29.13;20.50;;;2.50;99.90;;;;;;4952660;28;20173;-72
2023/04/08 05:06:32;;;;;;;27.27;20.10;;;2.60;99.90;;;;;;4953323;28;20042;-72
2023/04/08 05:08:57;;;;;;;29.13;20.77;;;2.50;99.90;;;;;;4955805;28;20041;-72
2023/04/08 05:11:23;;;;;;;28.85;20.65;;;2.50;99.90;;;;;;4954465;28;20547;-72
2023/04/08 05:13:49;;;;;;;29.17;21.13;;;2.50;99.90;;;;;;4959294;28;20108;-72
2023/04/08 05:16:15;;;;;;;25.52;20.48;;;2.50;99.90;;;;;;4953301;28;20035;-72
2023/04/08 05:18:41;;;;;;;26.15;19.85;;;2.50;99.90;;;;;;4958701;28;20046;-72
2023/04/08 05:21:07;;;;;;;24.90;19.88;;;2.60;99.90;;;;;;4956242;28;20042;-72
2023/04/08 05:23:34;;;;;;;27.02;19.65;;;2.50;99.90;;;;;;4952228;28;20050;-72
2023/04/08 05:26:00;;;;;;;25.80;19.70;;;2.60;99.90;;;;;;4957659;28;20038;-72
2023/04/08 05:28:26;;;;;;;26.98;20.40;;;2.70;99.90;;;;;;4972703;28;20110;-72
2023/04/08 05:30:53;;;;;;;29.55;20.85;;;2.70;99.90;;;;;;4973325;28;20043;-72
2023/04/08 05:33:19;;;;;;;29.30;21.70;;;2.70;99.90;;;;;;4955558;28;20161;-72
2023/04/08 05:35:45;;;;;;;29.58;22.83;;;2.80;99.90;;;;;;4957265;28;20483;-71
2023/04/08 05:38:11;;;;;;;25.50;20.15;;;2.80;99.90;;;;;;4952031;28;20034;-71
2023/04/08 05:40:37;;;;;;;29.83;21.63;;;3.00;99.90;;;;;;4954689;28;20034;-71
2023/04/08 05:43:02;;;;;;;28.30;21.40;;;3.10;99.90;;;;;;4951923;28;20127;-72
2023/04/08 05:45:29;;;;;;;29.48;21.45;;;3.30;99.90;;;;;;4955831;28;20038;-72
2023/04/08 05:47:55;;;;;;;29.92;23.15;;;3.40;99.90;;;;;;4951610;28;20081;-72
2023/04/08 05:50:21;;;;;;;31.13;23.13;;;3.50;99.90;;;;;;4958541;28;20043;-72
2023/04/08 05:52:47;;;;;;;33.45;23.27;;;3.70;99.90;;;;;;4954081;28;20046;-72
2023/04/08 05:55:13;;;;;;;28.15;22.63;;;3.90;99.90;;;;;;4935062;28;20051;-72
2023/04/08 05:57:40;;;;;;;27.88;22.13;;;4.10;99.90;;;;;;4953331;28;20085;-72
2023/04/08 06:00:07;;;;;;;25.52;22.05;;;4.20;99.90;;;;;;4957897;28;20042;-72
2023/04/08 06:02:36;;;;;;;27.98;22.40;;;4.30;99.90;;;;;;4956087;28;20121;-72
2023/04/08 06:05:03;;;;;;;25.33;20.90;;;4.30;99.90;;;;;;4943981;28;20114;-72
2023/04/08 06:07:29;;;;;;;27.45;21.23;;;4.40;99.90;;;;;;4958208;28;20392;-72
2023/04/08 06:09:55;;;;;;;29.98;21.38;;;4.40;99.90;;;;;;4944871;28;20034;-72
2023/04/08 06:12:20;;;;;;;26.70;20.98;;;4.40;99.90;;;;;;4958713;28;21240;-72
2023/04/08 06:14:46;;;;;;;26.80;20.92;;;4.40;99.90;;;;;;4955947;28;20550;-72
2023/04/08 06:17:12;;;;;;;28.70;22.75;;;4.50;99.90;;;;;;4955443;28;20034;-72
2023/04/08 06:19:38;;;;;;;25.05;20.63;;;4.50;99.90;;;;;;4959133;28;20027;-72
2023/04/08 06:22:04;;;;;;;29.80;21.92;;;4.50;99.90;;;;;;4956475;28;20102;-72
2023/04/08 06:24:29;;;;;;;24.85;21.50;;;4.50;99.90;;;;;;4960788;28;20038;-72
2023/04/08 06:26:55;;;;;;;30.33;22.52;;;4.50;99.90;;;;;;4955673;28;20039;-72
2023/04/08 06:29:21;;;;;;;24.98;21.05;;;4.60;99.90;;;;;;4956025;28;20039;-72
2023/04/08 06:31:48;;;;;;;25.92;21.90;;;4.70;99.90;;;;;;4961357;28;20070;-72
2023/04/08 06:34:14;;;;;;;26.40;21.17;;;4.70;99.90;;;;;;4954171;28;20102;-72
2023/04/08 06:36:39;;;;;;;25.42;21.42;;;4.80;99.90;;;;;;4962004;28;20079;-72
2023/04/08 06:39:05;;;;;;;29.63;21.55;;;4.90;99.90;;;;;;4964570;28;20071;-72
2023/04/08 06:41:31;;;;;;;30.38;22.45;;;4.90;99.90;;;;;;4951228;28;20117;-72
2023/04/08 06:43:56;;;;;;;28.75;22.70;;;5.00;99.90;;;;;;4975574;28;20064;-72
2023/04/08 06:46:23;;;;;;;31.75;22.92;;;5.00;99.90;;;;;;4962451;28;20046;-72
2023/04/08 06:48:48;;;;;;;32.55;22.90;;;5.00;99.90;;;;;;4964206;28;20047;-72
2023/04/08 06:51:14;;;;;;;29.90;22.67;;;5.10;99.90;;;;;;4966514;28;20121;-72
2023/04/08 06:53:40;;;;;;;28.17;22.48;;;5.20;99.90;;;;;;4962404;28;20041;-72
2023/04/08 06:56:06;;;;;;;28.38;22.10;;;5.30;99.90;;;;;;4979529;28;20058;-72
2023/04/08 06:58:31;;;;;;;27.58;22.33;;;5.40;99.90;;;;;;4950014;28;20034;-72
2023/04/08 07:01:00;;;;;;;29.38;23.23;;;5.40;99.90;;;;;;4980115;28;20031;-72
2023/04/08 07:03:25;;;;;;;26.10;21.55;;;5.60;99.90;;;;;;4962839;28;20042;-73
2023/04/08 07:05:52;;;;;;;67.18;53.67;;;5.80;99.90;;;;;;4963349;28;20043;-73
2023/04/08 07:08:17;;;;;;;30.05;22.58;;;6.00;99.90;;;;;;4962510;28;20038;-72
2023/04/08 07:10:43;;;;;;;26.75;22.05;;;6.30;99.90;;;;;;4958779;28;20038;-68
2023/04/08 07:13:09;;;;;;;25.75;21.10;;;6.50;99.90;;;;;;4950912;28;20439;-68
2023/04/08 07:15:35;;;;;;;24.73;20.52;;;6.80;99.90;;;;;;4953393;28;20519;-70
2023/04/08 07:18:01;;;;;;;23.95;19.85;;;6.90;99.90;;;;;;4954355;28;20046;-68
2023/04/08 07:20:27;;;;;;;23.17;19.95;;;7.00;99.90;;;;;;4944597;28;20139;-68
2023/04/08 07:22:53;;;;;;;24.23;20.85;;;7.20;99.90;;;;;;4964571;28;20085;-69
2023/04/08 07:25:19;;;;;;;23.13;20.48;;;7.50;99.90;;;;;;4949516;28;20042;-68
2023/04/08 07:27:45;;;;;;;22.90;20.58;;;7.60;99.90;;;;;;4950315;28;20071;-69
2023/04/08 07:30:11;;;;;;;22.33;19.77;;;7.80;99.90;;;;;;4952525;28;20120;-69
2023/04/08 07:32:37;;;;;;;21.17;17.67;;;7.80;99.90;;;;;;4937781;28;20085;-69
2023/04/08 07:35:03;;;;;;;21.33;18.95;;;7.70;99.90;;;;;;4951399;28;20075;-68
2023/04/08 07:37:29;;;;;;;21.08;18.75;;;7.60;99.90;;;;;;4953786;28;20038;-69
2023/04/08 07:39:54;;;;;;;20.95;18.60;;;7.60;99.90;;;;;;4947405;28;20054;-69
2023/04/08 07:42:20;;;;;;;19.88;17.67;;;7.70;99.90;;;;;;4963097;28;20034;-70
2023/04/08 07:44:46;;;;;;;20.50;18.30;;;7.70;99.90;;;;;;4952737;28;20043;-69
2023/04/08 07:47:12;;;;;;;23.02;19.58;;;7.90;99.90;;;;;;4950763;28;20046;-69
2023/04/08 07:49:39;;;;;;;22.05;19.75;;;8.20;99.90;;;;;;4950988;28;20499;-70
2023/04/08 07:52:05;;;;;;;20.65;18.45;;;9.00;99.90;;;;;;4949929;28;20442;-69
2023/04/08 07:54:35;;;;;;;19.90;17.90;;;9.90;99.90;;;;;;4950794;28;20042;-69
2023/04/08 07:57:01;;;;;;;18.30;16.45;;;10.60;99.90;;;;;;4955169;28;20051;-69
2023/04/08 07:59:28;;;;;;;19.35;17.10;;;11.10;99.90;;;;;;4946291;28;20043;-71
2023/04/08 08:01:54;;;;;;;18.05;16.17;;;11.60;99.90;;;;;;4950766;28;20035;-71
2023/04/08 08:04:20;;;;;;;20.60;18.50;;;11.70;99.90;;;;;;4947561;28;20049;-68
2023/04/08 08:06:46;;;;;;;18.17;16.33;;;11.90;99.90;;;;;;4960869;28;20049;-69
2023/04/08 08:09:12;;;;;;;16.17;14.52;;;12.50;99.90;;;;;;4948223;28;20046;-69
2023/04/08 08:11:38;;;;;;;15.98;14.38;;;13.00;99.90;;;;;;4942908;28;20045;-68
2023/04/08 08:14:04;;;;;;;14.77;13.38;;;13.40;99.90;;;;;;4951630;28;20133;-69
2023/04/08 08:16:30;;;;;;;16.65;14.98;;;13.70;99.90;;;;;;4942861;28;20051;-68
2023/04/08 08:19:00;;;;;;;16.13;14.57;;;13.40;99.90;;;;;;4942296;28;20058;-69
2023/04/08 08:21:26;;;;;;;15.38;13.95;;;13.40;99.90;;;;;;4953229;28;20070;-69
2023/04/08 08:23:53;;;;;;;17.70;16.10;;;13.50;99.90;;;;;;4962541;28;20531;-68
2023/04/08 08:26:20;;;;;;;17.20;15.57;;;13.80;99.90;;;;;;4948142;28;20499;-68
2023/04/08 08:28:45;;;;;;;15.40;13.90;;;13.50;99.90;;;;;;4948308;28;20500;-69
2023/04/08 08:31:11;;;;;;;15.23;13.82;;;13.50;99.90;;;;;;4950372;28;20075;-69
2023/04/08 08:33:37;;;;;;;16.17;14.63;;;13.80;99.90;;;;;;4953878;28;20070;-68
2023/04/08 08:36:04;;;;;;;16.42;14.93;;;13.90;99.90;;;;;;4951037;28;20484;-69
2023/04/08 08:38:30;;;;;;;17.52;15.70;;;14.20;99.90;;;;;;4947759;28;20074;-70
2023/04/08 08:40:59;;;;;;;15.80;14.38;;;14.20;99.90;;;;;;4949584;28;20070;-69
2023/04/08 08:43:26;;;;;;;15.07;13.73;;;14.40;99.90;;;;;;4952341;28;20073;-70
2023/04/08 08:45:53;;;;;;;15.55;14.05;;;14.70;99.90;;;;;;4941530;28;20050;-70
2023/04/08 08:48:19;;;;;;;15.65;14.15;;;14.80;99.90;;;;;;4950593;28;20479;-69
2023/04/08 08:50:45;;;;;;;15.85;14.50;;;15.20;99.90;;;;;;4950003;28;20050;-69
2023/04/08 08:53:11;;;;;;;15.77;14.40;;;15.30;99.90;;;;;;4950905;28;20047;-70
2023/04/08 08:55:38;;;;;;;14.80;13.48;;;15.00;99.90;;;;;;4943084;28;20130;-69
2023/04/08 08:58:06;;;;;;;15.30;13.90;;;14.60;99.90;;;;;;4945106;28;20480;-69
2023/04/08 09:00:34;;;;;;;14.73;13.38;;;14.00;99.90;;;;;;4953141;28;20040;-70
2023/04/08 09:03:20;;;;;;;15.02;13.73;;;13.50;99.90;;;;;;4947076;28;20122;-70
2023/04/08 09:05:52;;;;;;;14.60;13.20;;;13.10;99.90;;;;;;4982238;28;20062;-69
2023/04/08 09:08:31;;;;;;;14.00;12.70;;;13.60;99.90;;;;;;4949166;28;20410;-69
2023/04/08 09:11:14;;;;;;;13.35;12.15;;;14.10;99.90;;;;;;4966194;28;20571;-69
2023/04/08 09:13:40;;;;;;;13.55;12.35;;;14.50;99.90;;;;;;4935032;28;20054;-70
2023/04/08 09:16:16;;;;;;;13.52;12.35;;;14.60;99.90;;;;;;4949115;28;20127;-69
2023/04/08 09:18:43;;;;;;;13.13;12.02;;;14.60;99.90;;;;;;4946679;28;20093;-69
2023/04/08 09:21:10;;;;;;;13.15;11.93;;;14.80;99.90;;;;;;4946627;28;20046;-70
2023/04/08 09:23:51;;;;;;;14.32;12.82;;;15.10;99.90;;;;;;4944708;28;20093;-70
2023/04/08 09:26:21;;;;;;;15.05;13.57;;;15.30;99.90;;;;;;4960196;28;20126;-70
2023/04/08 09:29:05;;;;;;;12.85;11.73;;;15.20;99.90;;;;;;4946137;28;20046;-70
2023/04/08 09:31:33;;;;;;;12.35;11.23;;;15.30;99.90;;;;;;4941775;28;20041;-70
2023/04/08 09:34:14;;;;;;;13.25;12.15;;;15.00;99.90;;;;;;4951865;28;20050;-70
2023/04/08 09:36:39;;;;;;;11.88;10.80;;;15.10;99.90;;;;;;4933936;28;20038;-71
2023/04/08 09:39:06;;;;;;;12.68;11.43;;;15.40;99.90;;;;;;4950391;28;20034;-69
2023/04/08 09:41:37;;;;;;;11.98;10.98;;;15.80;99.90;;;;;;4948514;28;20460;-70
2023/04/08 09:44:23;;;;;;;13.20;12.05;;;15.70;99.90;;;;;;4944530;28;20098;-70
2023/04/08 09:46:49;;;;;;;12.88;11.77;;;15.60;99.90;;;;;;4950098;28;20065;-69
2023/04/08 09:49:37;;;;;;;12.07;10.98;;;15.70;99.90;;;;;;4948852;28;20047;-70
2023/04/08 09:52:24;;;;;;;12.93;11.82;;;15.50;99.90;;;;;;4947186;28;20043;-69
2023/04/08 09:55:01;;;;;;;13.57;12.23;;;14.80;99.90;;;;;;4944496;28;20118;-70
2023/04/08 09:57:35;;;;;;;18.83;13.70;;;14.50;99.90;;;;;;4951779;28;20407;-70
2023/04/08 10:00:12;;;;;;;12.35;11.00;;;14.50;99.90;;;;;;4951459;28;20462;-69
2023/04/08 10:03:10;;;;;;;13.93;12.35;;;15.00;99.90;;;;;;4949065;28;20484;-69
2023/04/08 10:05:38;;;;;;;20.60;13.68;;;15.60;99.90;;;;;;4952238;28;20043;-69
2023/04/08 10:08:05;;;;;;;12.93;11.85;;;15.80;99.90;;;;;;4947361;28;20569;-69
2023/04/08 10:10:35;;;;;;;13.35;12.05;;;16.00;99.90;;;;;;4944729;28;20082;-69
2023/04/08 10:13:03;;;;;;;12.82;11.82;;;16.20;99.90;;;;;;4945653;28;20078;-69
2023/04/08 10:15:31;;;;;;;12.70;11.40;;;16.30;99.90;;;;;;4948735;28;20137;-69
2023/04/08 10:18:05;;;;;;;14.05;12.13;;;16.10;99.90;;;;;;4954357;28;20490;-69
2023/04/08 10:20:36;;;;;;;11.18;10.18;;;16.40;99.90;;;;;;4956026;28;20050;-70
2023/04/08 10:23:06;;;;;;;11.15;10.15;;;16.60;99.90;;;;;;4949196;28;20039;-69
2023/04/08 10:25:37;;;;;;;11.13;10.20;;;16.20;99.90;;;;;;4963886;28;20078;-69
2023/04/08 10:28:24;;;;;;;12.32;11.23;;;15.90;99.90;;;;;;4969067;28;20357;-70
2023/04/08 10:30:50;;;;;;;12.18;11.07;;;15.30;99.90;;;;;;4942260;28;20126;-69
2023/04/08 10:33:28;;;;;;;13.85;12.32;;;15.10;99.90;;;;;;4949605;28;20143;-69
2023/04/08 10:35:54;;;;;;;14.57;12.45;;;14.90;99.90;;;;;;4947924;28;20509;-69
2023/04/08 10:38:21;;;;;;;13.73;12.43;;;15.00;99.90;;;;;;4966369;28;20039;-69
2023/04/08 10:40:48;;;;;;;13.07;11.88;;;14.90;99.90;;;;;;4945657;28;20034;-69
2023/04/08 10:43:16;;;;;;;12.15;11.10;;;15.00;99.90;;;;;;4946277;28;20443;-69
2023/04/08 10:45:44;;;;;;;11.63;10.63;;;15.10;99.90;;;;;;4955613;28;20038;-70
2023/04/08 10:48:24;;;;;;;14.90;12.98;;;15.30;99.90;;;;;;4952547;28;20043;-69
2023/04/08 10:51:03;;;;;;;12.27;11.18;;;15.40;99.90;;;;;;4959706;28;20050;-69
2023/04/08 10:53:38;;;;;;;11.48;10.48;;;15.40;99.90;;;;;;4964363;28;20098;-70
2023/04/08 10:56:16;;;;;;;11.50;10.60;;;15.40;99.90;;;;;;4946396;28;20051;-69
2023/04/08 10:58:53;;;;;;;11.02;10.02;;;15.30;99.90;;;;;;4966593;28;20079;-68
2023/04/08 11:01:19;;;;;;;11.40;10.40;;;15.10;99.90;;;;;;4946518;28;20043;-69
2023/04/08 11:03:45;;;;;;;11.25;10.25;;;14.90;99.90;;;;;;4955445;28;20125;-69
2023/04/08 11:06:10;;;;;;;11.93;10.88;;;14.90;99.90;;;;;;4948779;28;20375;-69
2023/04/08 11:08:36;;;;;;;13.10;11.55;;;14.70;99.90;;;;;;4945559;28;20043;-69
2023/04/08 11:11:07;;;;;;;14.98;11.68;;;14.90;99.90;;;;;;4943657;28;20409;-69
2023/04/08 11:13:38;;;;;;;11.10;10.10;;;15.00;99.90;;;;;;4952058;28;20078;-69
2023/04/08 11:16:06;;;;;;;10.65;9.65;;;14.90;99.90;;;;;;4945383;28;20049;-69
2023/04/08 11:18:34;;;;;;;11.07;9.98;;;14.60;99.90;;;;;;4951715;28;20482;-68
2023/04/08 11:21:00;;;;;;;11.65;10.45;;;14.30;99.90;;;;;;4946617;28;20038;-69
2023/04/08 11:23:26;;;;;;;16.80;12.10;;;14.00;99.90;;;;;;4949480;28;20043;-69
2023/04/08 11:25:53;;;;;;;21.25;11.60;;;13.80;99.90;;;;;;4949685;28;20483;-69
2023/04/08 11:28:19;;;;;;;9.68;8.77;;;13.50;99.90;;;;;;4941082;28;20043;-69
2023/04/08 11:30:46;;;;;;;10.52;9.52;;;13.30;99.90;;;;;;4963564;28;20061;-69
2023/04/08 11:33:13;;;;;;;11.20;10.10;;;13.10;99.90;;;;;;4946040;28;20102;-69
2023/04/08 11:35:43;;;;;;;16.52;14.90;;;12.80;99.90;;;;;;4946184;28;20539;-69
2023/04/08 11:38:11;;;;;;;14.40;12.88;;;12.40;99.90;;;;;;4946422;28;20114;-69
2023/04/08 11:40:37;;;;;;;11.07;10.00;;;12.30;99.90;;;;;;4949919;28;20384;-68
2023/04/08 11:43:11;;;;;;;10.43;9.45;;;12.30;99.90;;;;;;4950286;28;20573;-69
2023/04/08 11:45:41;;;;;;;9.25;8.35;;;12.20;99.90;;;;;;4955006;28;20347;-69
2023/04/08 11:48:14;;;;;;;9.77;8.77;;;12.10;99.90;;;;;;4936557;28;20097;-68
2023/04/08 11:50:41;;;;;;;9.32;8.43;;;12.00;99.90;;;;;;4950215;28;20047;-68
2023/04/08 11:53:21;;;;;;;9.93;8.93;;;12.00;99.90;;;;;;4948557;28;20061;-68
2023/04/08 11:55:48;;;;;;;9.60;8.70;;;12.10;99.90;;;;;;4965106;28;20065;-69
2023/04/08 11:58:14;;;;;;;9.52;8.30;;;12.00;99.90;;;;;;4959525;28;20061;-69
2023/04/08 12:00:41;;;;;;;9.82;8.30;;;12.10;99.90;;;;;;4950659;28;20030;-68
2023/04/08 12:03:07;;;;;;;9.55;8.52;;;12.10;99.90;;;;;;4966555;28;20039;-68
2023/04/08 12:05:33;;;;;;;9.40;7.85;;;12.30;99.90;;;;;;4967304;28;20039;-68
2023/04/08 12:07:59;;;;;;;9.40;8.40;;;12.10;99.90;;;;;;4942977;28;20037;-68
2023/04/08 12:10:24;;;;;;;8.30;7.50;;;12.00;99.90;;;;;;4966875;28;20506;-68
2023/04/08 12:12:50;;;;;;;8.48;7.68;;;12.00;99.90;;;;;;4933998;28;20035;-69
2023/04/08 12:15:16;;;;;;;8.38;7.30;;;12.00;99.90;;;;;;4947772;28;20399;-69
2023/04/08 12:17:42;;;;;;;9.07;8.18;;;11.80;99.90;;;;;;4958839;28;20050;-68
2023/04/08 12:20:09;;;;;;;9.95;8.43;;;11.80;99.90;;;;;;4947185;28;20463;-67
2023/04/08 12:22:35;;;;;;;13.43;9.73;;;11.70;99.90;;;;;;4950101;28;20047;-68
2023/04/08 12:25:02;;;;;;;10.38;7.75;;;11.60;99.90;;;;;;4944576;28;20480;-69
2023/04/08 12:27:29;;;;;;;8.65;7.68;;;11.50;99.90;;;;;;4947939;28;20142;-68
2023/04/08 12:29:54;;;;;;;9.90;8.90;;;11.50;99.90;;;;;;4948079;28;20053;-69
2023/04/08 12:32:20;;;;;;;11.27;8.93;;;11.50;99.90;;;;;;4979287;28;20415;-67
2023/04/08 12:34:46;;;;;;;10.13;8.85;;;11.40;99.90;;;;;;4962048;28;20126;-68
2023/04/08 12:37:12;;;;;;;10.02;8.85;;;11.40;99.90;;;;;;4947093;28;20343;-69
2023/04/08 12:39:37;;;;;;;9.90;8.90;;;11.30;99.90;;;;;;4968267;28;20034;-69
2023/04/08 12:42:03;;;;;;;10.43;8.98;;;11.30;99.90;;;;;;4947525;28;20125;-68